sensor_id;sensor_type;location;lat;lon;timestamp;P1;durP1;ratioP1;P2;durP2;ratioP2
21432;SDS011;18592;49.708;10.900;2024-03-25T00:01:14;193.00;;;109.03;;
21432;SDS011;18592;49.708;10.900;2024-03-25T00:03:14;202.43;;;114.43;;
21432;SDS011;18592;49.708;10.900;2024-03-25T00:05:15;214.90;;;120.40;;
21432;SDS011;18592;49.708;10.900;2024-03-25T00:07:20;225.50;;;124.63;;
21432;SDS011;18592;49.708;10.900;2024-03-25T00:09:20;182.20;;;104.45;;
21432;SDS011;18592;49.708;10.900;2024-03-25T00:11:26;176.15;;;99.57;;
21432;SDS011;18592;49.708;10.900;2024-03-25T00:13:40;194.85;;;108.72;;
21432;SDS011;18592;49.708;10.900;2024-03-25T00:15:41;185.85;;;106.05;;
21432;SDS011;18592;49.708;10.900;2024-03-25T00:17:41;186.73;;;108.00;;
21432;SDS011;18592;49.708;10.900;2024-03-25T00:19:42;172.82;;;99.55;;
21432;SDS011;18592;49.708;10.900;2024-03-25T00:21:42;189.50;;;108.30;;
21432;SDS011;18592;49.708;10.900;2024-03-25T00:23:43;195.18;;;110.63;;
21432;SDS011;18592;49.708;10.900;2024-03-25T00:25:43;168.13;;;98.50;;
21432;SDS011;18592;49.708;10.900;2024-03-25T00:27:44;162.52;;;93.38;;
21432;SDS011;18592;49.708;10.900;2024-03-25T00:29:44;187.80;;;106.10;;
21432;SDS011;18592;49.708;10.900;2024-03-25T00:31:45;186.65;;;106.28;;
21432;SDS011;18592;49.708;10.900;2024-03-25T00:33:58;192.93;;;111.47;;
21432;SDS011;18592;49.708;10.900;2024-03-25T00:35:59;172.27;;;100.50;;
21432;SDS011;18592;49.708;10.900;2024-03-25T00:37:59;193.85;;;109.43;;
21432;SDS011;18592;49.708;10.900;2024-03-25T00:40:01;171.80;;;98.75;;
21432;SDS011;18592;49.708;10.900;2024-03-25T00:42:01;170.65;;;100.13;;
21432;SDS011;18592;49.708;10.900;2024-03-25T00:44:02;199.20;;;113.85;;
21432;SDS011;18592;49.708;10.900;2024-03-25T00:46:11;187.77;;;106.53;;
21432;SDS011;18592;49.708;10.900;2024-03-25T00:48:11;171.18;;;98.78;;
21432;SDS011;18592;49.708;10.900;2024-03-25T00:50:12;192.50;;;107.45;;
21432;SDS011;18592;49.708;10.900;2024-03-25T00:52:13;211.60;;;121.25;;
21432;SDS011;18592;49.708;10.900;2024-03-25T00:54:13;218.57;;;126.93;;
21432;SDS011;18592;49.708;10.900;2024-03-25T00:56:14;211.75;;;119.53;;
21432;SDS011;18592;49.708;10.900;2024-03-25T00:58:14;202.60;;;115.00;;
21432;SDS011;18592;49.708;10.900;2024-03-25T01:00:15;200.57;;;114.07;;
21432;SDS011;18592;49.708;10.900;2024-03-25T01:02:16;209.13;;;120.38;;
21432;SDS011;18592;49.708;10.900;2024-03-25T01:04:17;235.63;;;130.70;;
21432;SDS011;18592;49.708;10.900;2024-03-25T01:06:33;205.77;;;117.65;;
21432;SDS011;18592;49.708;10.900;2024-03-25T01:08:52;220.57;;;125.53;;
21432;SDS011;18592;49.708;10.900;2024-03-25T01:10:53;225.00;;;129.27;;
21432;SDS011;18592;49.708;10.900;2024-03-25T01:12:54;245.40;;;135.07;;
21432;SDS011;18592;49.708;10.900;2024-03-25T01:14:54;248.10;;;141.80;;
21432;SDS011;18592;49.708;10.900;2024-03-25T01:16:55;240.43;;;136.50;;
21432;SDS011;18592;49.708;10.900;2024-03-25T01:18:57;255.10;;;142.10;;
21432;SDS011;18592;49.708;10.900;2024-03-25T01:21:05;229.93;;;131.82;;
21432;SDS011;18592;49.708;10.900;2024-03-25T01:23:06;201.50;;;119.32;;
21432;SDS011;18592;49.708;10.900;2024-03-25T01:25:06;221.10;;;126.25;;
21432;SDS011;18592;49.708;10.900;2024-03-25T01:27:07;212.90;;;125.30;;
21432;SDS011;18592;49.708;10.900;2024-03-25T01:29:08;200.38;;;115.68;;
21432;SDS011;18592;49.708;10.900;2024-03-25T01:31:09;202.60;;;116.38;;
21432;SDS011;18592;49.708;10.900;2024-03-25T01:33:09;199.70;;;114.65;;
21432;SDS011;18592;49.708;10.900;2024-03-25T01:35:10;197.20;;;114.80;;
21432;SDS011;18592;49.708;10.900;2024-03-25T01:37:13;194.43;;;112.45;;
21432;SDS011;18592;49.708;10.900;2024-03-25T01:39:14;202.50;;;115.38;;
21432;SDS011;18592;49.708;10.900;2024-03-25T01:41:14;186.05;;;112.35;;
21432;SDS011;18592;49.708;10.900;2024-03-25T01:43:23;161.63;;;92.68;;
21432;SDS011;18592;49.708;10.900;2024-03-25T01:45:27;173.55;;;97.93;;
21432;SDS011;18592;49.708;10.900;2024-03-25T01:47:30;165.52;;;95.90;;
21432;SDS011;18592;49.708;10.900;2024-03-25T01:49:33;169.27;;;97.22;;
21432;SDS011;18592;49.708;10.900;2024-03-25T01:51:35;169.15;;;96.07;;
21432;SDS011;18592;49.708;10.900;2024-03-25T01:53:38;176.18;;;101.50;;
21432;SDS011;18592;49.708;10.900;2024-03-25T01:55:39;181.80;;;106.65;;
21432;SDS011;18592;49.708;10.900;2024-03-25T01:57:46;186.23;;;106.68;;
21432;SDS011;18592;49.708;10.900;2024-03-25T01:59:47;174.40;;;100.68;;
21432;SDS011;18592;49.708;10.900;2024-03-25T02:01:48;170.38;;;98.10;;
21432;SDS011;18592;49.708;10.900;2024-03-25T02:03:52;169.75;;;97.10;;
21432;SDS011;18592;49.708;10.900;2024-03-25T02:05:55;149.63;;;87.55;;
21432;SDS011;18592;49.708;10.900;2024-03-25T02:07:58;144.85;;;84.63;;
21432;SDS011;18592;49.708;10.900;2024-03-25T02:10:15;151.35;;;84.55;;
21432;SDS011;18592;49.708;10.900;2024-03-25T02:12:16;148.18;;;86.82;;
21432;SDS011;18592;49.708;10.900;2024-03-25T02:14:17;153.75;;;89.47;;
21432;SDS011;18592;49.708;10.900;2024-03-25T02:16:17;168.10;;;97.00;;
21432;SDS011;18592;49.708;10.900;2024-03-25T02:18:18;159.90;;;91.40;;
21432;SDS011;18592;49.708;10.900;2024-03-25T02:20:18;135.50;;;81.13;;
21432;SDS011;18592;49.708;10.900;2024-03-25T02:22:19;134.82;;;80.63;;
21432;SDS011;18592;49.708;10.900;2024-03-25T02:24:20;143.07;;;83.15;;
21432;SDS011;18592;49.708;10.900;2024-03-25T02:26:22;134.43;;;78.00;;
21432;SDS011;18592;49.708;10.900;2024-03-25T02:28:23;133.73;;;75.10;;
21432;SDS011;18592;49.708;10.900;2024-03-25T02:30:24;130.88;;;74.35;;
21432;SDS011;18592;49.708;10.900;2024-03-25T02:32:24;127.97;;;75.43;;
21432;SDS011;18592;49.708;10.900;2024-03-25T02:34:25;125.18;;;72.63;;
21432;SDS011;18592;49.708;10.900;2024-03-25T02:36:26;124.13;;;71.55;;
21432;SDS011;18592;49.708;10.900;2024-03-25T02:38:27;119.18;;;71.20;;
21432;SDS011;18592;49.708;10.900;2024-03-25T02:40:28;121.03;;;71.72;;
21432;SDS011;18592;49.708;10.900;2024-03-25T02:42:28;124.95;;;71.15;;
21432;SDS011;18592;49.708;10.900;2024-03-25T02:44:29;114.70;;;66.85;;
21432;SDS011;18592;49.708;10.900;2024-03-25T02:46:31;113.75;;;67.40;;
21432;SDS011;18592;49.708;10.900;2024-03-25T02:48:34;110.88;;;64.50;;
21432;SDS011;18592;49.708;10.900;2024-03-25T02:50:36;107.30;;;65.40;;
21432;SDS011;18592;49.708;10.900;2024-03-25T02:52:37;104.22;;;61.25;;
21432;SDS011;18592;49.708;10.900;2024-03-25T02:54:37;97.45;;;58.85;;
21432;SDS011;18592;49.708;10.900;2024-03-25T02:56:39;90.97;;;52.33;;
21432;SDS011;18592;49.708;10.900;2024-03-25T02:58:40;92.40;;;55.03;;
21432;SDS011;18592;49.708;10.900;2024-03-25T03:00:40;92.18;;;53.72;;
21432;SDS011;18592;49.708;10.900;2024-03-25T03:02:46;85.13;;;51.67;;
21432;SDS011;18592;49.708;10.900;2024-03-25T03:04:46;82.25;;;47.95;;
21432;SDS011;18592;49.708;10.900;2024-03-25T03:06:47;70.72;;;43.83;;
21432;SDS011;18592;49.708;10.900;2024-03-25T03:08:47;70.85;;;44.58;;
21432;SDS011;18592;49.708;10.900;2024-03-25T03:10:48;83.45;;;48.67;;
21432;SDS011;18592;49.708;10.900;2024-03-25T03:12:48;80.57;;;48.28;;
21432;SDS011;18592;49.708;10.900;2024-03-25T03:14:49;69.28;;;42.90;;
21432;SDS011;18592;49.708;10.900;2024-03-25T03:16:50;63.70;;;39.13;;
21432;SDS011;18592;49.708;10.900;2024-03-25T03:18:54;62.35;;;39.35;;
21432;SDS011;18592;49.708;10.900;2024-03-25T03:20:55;62.70;;;38.22;;
21432;SDS011;18592;49.708;10.900;2024-03-25T03:22:56;63.53;;;40.05;;
21432;SDS011;18592;49.708;10.900;2024-03-25T03:24:57;60.25;;;37.28;;
21432;SDS011;18592;49.708;10.900;2024-03-25T03:26:58;58.78;;;35.88;;
21432;SDS011;18592;49.708;10.900;2024-03-25T03:28:58;57.67;;;35.08;;
21432;SDS011;18592;49.708;10.900;2024-03-25T03:31:05;58.90;;;36.53;;
21432;SDS011;18592;49.708;10.900;2024-03-25T03:33:06;52.35;;;32.45;;
21432;SDS011;18592;49.708;10.900;2024-03-25T03:35:07;49.50;;;30.95;;
21432;SDS011;18592;49.708;10.900;2024-03-25T03:37:07;51.92;;;31.52;;
21432;SDS011;18592;49.708;10.900;2024-03-25T03:39:08;46.53;;;30.25;;
21432;SDS011;18592;49.708;10.900;2024-03-25T03:41:11;49.70;;;31.00;;
21432;SDS011;18592;49.708;10.900;2024-03-25T03:43:12;45.90;;;29.17;;
21432;SDS011;18592;49.708;10.900;2024-03-25T03:45:13;47.67;;;28.23;;
21432;SDS011;18592;49.708;10.900;2024-03-25T03:47:13;43.10;;;27.00;;
21432;SDS011;18592;49.708;10.900;2024-03-25T03:49:14;39.45;;;24.55;;
21432;SDS011;18592;49.708;10.900;2024-03-25T03:51:27;36.88;;;22.83;;
21432;SDS011;18592;49.708;10.900;2024-03-25T03:53:27;31.98;;;19.90;;
21432;SDS011;18592;49.708;10.900;2024-03-25T03:55:28;31.45;;;20.27;;
21432;SDS011;18592;49.708;10.900;2024-03-25T03:57:28;35.17;;;20.52;;
21432;SDS011;18592;49.708;10.900;2024-03-25T03:59:33;33.33;;;20.58;;
21432;SDS011;18592;49.708;10.900;2024-03-25T04:01:35;33.80;;;21.45;;
21432;SDS011;18592;49.708;10.900;2024-03-25T04:03:35;31.50;;;20.58;;
21432;SDS011;18592;49.708;10.900;2024-03-25T04:05:37;34.83;;;21.52;;
21432;SDS011;18592;49.708;10.900;2024-03-25T04:07:38;33.30;;;21.10;;
21432;SDS011;18592;49.708;10.900;2024-03-25T04:09:38;31.67;;;20.13;;
21432;SDS011;18592;49.708;10.900;2024-03-25T04:11:45;30.13;;;19.77;;
21432;SDS011;18592;49.708;10.900;2024-03-25T04:13:46;32.92;;;20.98;;
21432;SDS011;18592;49.708;10.900;2024-03-25T04:15:47;31.58;;;20.85;;
21432;SDS011;18592;49.708;10.900;2024-03-25T04:17:48;35.45;;;21.17;;
21432;SDS011;18592;49.708;10.900;2024-03-25T04:19:51;31.00;;;20.40;;
21432;SDS011;18592;49.708;10.900;2024-03-25T04:21:53;31.75;;;19.90;;
21432;SDS011;18592;49.708;10.900;2024-03-25T04:23:53;29.52;;;18.55;;
21432;SDS011;18592;49.708;10.900;2024-03-25T04:25:54;27.95;;;17.50;;
21432;SDS011;18592;49.708;10.900;2024-03-25T04:27:55;26.58;;;15.90;;
21432;SDS011;18592;49.708;10.900;2024-03-25T04:29:55;26.10;;;17.15;;
21432;SDS011;18592;49.708;10.900;2024-03-25T04:31:56;27.02;;;16.77;;
21432;SDS011;18592;49.708;10.900;2024-03-25T04:33:56;26.85;;;16.70;;
21432;SDS011;18592;49.708;10.900;2024-03-25T04:35:57;24.58;;;16.63;;
21432;SDS011;18592;49.708;10.900;2024-03-25T04:37:58;23.48;;;15.27;;
21432;SDS011;18592;49.708;10.900;2024-03-25T04:40:03;22.42;;;15.75;;
21432;SDS011;18592;49.708;10.900;2024-03-25T04:42:03;25.42;;;15.50;;
21432;SDS011;18592;49.708;10.900;2024-03-25T04:44:04;23.88;;;14.80;;
21432;SDS011;18592;49.708;10.900;2024-03-25T04:46:04;25.13;;;15.57;;
21432;SDS011;18592;49.708;10.900;2024-03-25T04:48:05;21.02;;;14.07;;
21432;SDS011;18592;49.708;10.900;2024-03-25T04:50:09;25.95;;;13.95;;
21432;SDS011;18592;49.708;10.900;2024-03-25T04:52:12;18.75;;;12.82;;
21432;SDS011;18592;49.708;10.900;2024-03-25T04:54:13;18.17;;;12.50;;
21432;SDS011;18592;49.708;10.900;2024-03-25T04:56:14;21.17;;;12.57;;
21432;SDS011;18592;49.708;10.900;2024-03-25T04:58:15;20.63;;;12.60;;
21432;SDS011;18592;49.708;10.900;2024-03-25T05:00:16;17.30;;;10.95;;
21432;SDS011;18592;49.708;10.900;2024-03-25T05:02:17;16.90;;;11.32;;
21432;SDS011;18592;49.708;10.900;2024-03-25T05:04:18;19.00;;;11.85;;
21432;SDS011;18592;49.708;10.900;2024-03-25T05:06:18;17.52;;;10.93;;
21432;SDS011;18592;49.708;10.900;2024-03-25T05:08:19;14.95;;;10.38;;
21432;SDS011;18592;49.708;10.900;2024-03-25T05:10:23;15.43;;;10.23;;
21432;SDS011;18592;49.708;10.900;2024-03-25T05:12:24;15.43;;;10.25;;
21432;SDS011;18592;49.708;10.900;2024-03-25T05:14:30;14.63;;;9.32;;
21432;SDS011;18592;49.708;10.900;2024-03-25T05:16:30;15.00;;;10.38;;
21432;SDS011;18592;49.708;10.900;2024-03-25T05:18:31;14.82;;;9.82;;
21432;SDS011;18592;49.708;10.900;2024-03-25T05:20:32;14.27;;;9.98;;
21432;SDS011;18592;49.708;10.900;2024-03-25T05:22:33;14.10;;;9.30;;
21432;SDS011;18592;49.708;10.900;2024-03-25T05:24:33;13.75;;;9.38;;
21432;SDS011;18592;49.708;10.900;2024-03-25T05:26:34;13.38;;;9.35;;
21432;SDS011;18592;49.708;10.900;2024-03-25T05:28:34;13.80;;;8.77;;
21432;SDS011;18592;49.708;10.900;2024-03-25T05:30:35;14.02;;;8.82;;
21432;SDS011;18592;49.708;10.900;2024-03-25T05:32:35;13.30;;;8.60;;
21432;SDS011;18592;49.708;10.900;2024-03-25T05:34:36;12.48;;;8.32;;
21432;SDS011;18592;49.708;10.900;2024-03-25T05:36:37;10.48;;;7.60;;
21432;SDS011;18592;49.708;10.900;2024-03-25T05:38:37;12.55;;;8.65;;
21432;SDS011;18592;49.708;10.900;2024-03-25T05:40:38;12.70;;;7.57;;
21432;SDS011;18592;49.708;10.900;2024-03-25T05:42:39;10.70;;;7.38;;
21432;SDS011;18592;49.708;10.900;2024-03-25T05:44:39;14.07;;;8.35;;
21432;SDS011;18592;49.708;10.900;2024-03-25T05:46:40;12.25;;;7.60;;
21432;SDS011;18592;49.708;10.900;2024-03-25T05:48:40;10.55;;;6.72;;
21432;SDS011;18592;49.708;10.900;2024-03-25T05:50:41;11.05;;;6.90;;
21432;SDS011;18592;49.708;10.900;2024-03-25T05:52:42;8.57;;;5.90;;
21432;SDS011;18592;49.708;10.900;2024-03-25T05:54:43;8.75;;;5.97;;
21432;SDS011;18592;49.708;10.900;2024-03-25T05:56:43;8.90;;;6.40;;
21432;SDS011;18592;49.708;10.900;2024-03-25T05:58:44;10.68;;;6.88;;
21432;SDS011;18592;49.708;10.900;2024-03-25T06:00:48;10.02;;;6.78;;
21432;SDS011;18592;49.708;10.900;2024-03-25T06:02:48;10.60;;;6.75;;
21432;SDS011;18592;49.708;10.900;2024-03-25T06:04:49;10.15;;;6.40;;
21432;SDS011;18592;49.708;10.900;2024-03-25T06:06:50;10.50;;;6.07;;
21432;SDS011;18592;49.708;10.900;2024-03-25T06:08:50;8.55;;;6.05;;
21432;SDS011;18592;49.708;10.900;2024-03-25T06:10:59;9.63;;;6.13;;
21432;SDS011;18592;49.708;10.900;2024-03-25T06:13:01;9.80;;;6.50;;
21432;SDS011;18592;49.708;10.900;2024-03-25T06:15:02;8.35;;;5.13;;
21432;SDS011;18592;49.708;10.900;2024-03-25T06:17:03;8.45;;;5.55;;
21432;SDS011;18592;49.708;10.900;2024-03-25T06:19:04;6.90;;;4.85;;
21432;SDS011;18592;49.708;10.900;2024-03-25T06:21:04;8.02;;;5.07;;
21432;SDS011;18592;49.708;10.900;2024-03-25T06:23:05;6.45;;;4.95;;
21432;SDS011;18592;49.708;10.900;2024-03-25T06:25:05;8.20;;;5.10;;
21432;SDS011;18592;49.708;10.900;2024-03-25T06:27:06;8.38;;;5.53;;
21432;SDS011;18592;49.708;10.900;2024-03-25T06:29:08;7.57;;;5.15;;
21432;SDS011;18592;49.708;10.900;2024-03-25T06:31:09;8.95;;;4.68;;
21432;SDS011;18592;49.708;10.900;2024-03-25T06:33:28;5.38;;;3.95;;
21432;SDS011;18592;49.708;10.900;2024-03-25T06:35:47;4.78;;;3.90;;
21432;SDS011;18592;49.708;10.900;2024-03-25T06:37:48;5.82;;;3.80;;
21432;SDS011;18592;49.708;10.900;2024-03-25T06:39:53;6.60;;;3.60;;
21432;SDS011;18592;49.708;10.900;2024-03-25T06:41:54;6.47;;;3.85;;
21432;SDS011;18592;49.708;10.900;2024-03-25T06:43:55;8.00;;;3.70;;
21432;SDS011;18592;49.708;10.900;2024-03-25T06:45:55;7.80;;;3.80;;
21432;SDS011;18592;49.708;10.900;2024-03-25T06:47:56;5.85;;;3.78;;
21432;SDS011;18592;49.708;10.900;2024-03-25T06:49:57;6.28;;;4.18;;
21432;SDS011;18592;49.708;10.900;2024-03-25T06:51:58;4.65;;;2.97;;
21432;SDS011;18592;49.708;10.900;2024-03-25T06:54:05;4.82;;;3.28;;
21432;SDS011;18592;49.708;10.900;2024-03-25T06:56:06;5.55;;;2.90;;
21432;SDS011;18592;49.708;10.900;2024-03-25T06:58:07;6.70;;;2.97;;
21432;SDS011;18592;49.708;10.900;2024-03-25T07:00:07;4.13;;;2.50;;
21432;SDS011;18592;49.708;10.900;2024-03-25T07:02:13;4.45;;;3.00;;
21432;SDS011;18592;49.708;10.900;2024-03-25T07:04:13;3.60;;;2.47;;
21432;SDS011;18592;49.708;10.900;2024-03-25T07:06:14;4.47;;;2.58;;
21432;SDS011;18592;49.708;10.900;2024-03-25T07:08:15;3.95;;;2.70;;
21432;SDS011;18592;49.708;10.900;2024-03-25T07:10:16;4.05;;;2.42;;
21432;SDS011;18592;49.708;10.900;2024-03-25T07:12:16;3.42;;;2.22;;
21432;SDS011;18592;49.708;10.900;2024-03-25T07:14:17;4.25;;;2.20;;
21432;SDS011;18592;49.708;10.900;2024-03-25T07:16:17;4.10;;;2.40;;
21432;SDS011;18592;49.708;10.900;2024-03-25T07:18:26;3.38;;;2.35;;
21432;SDS011;18592;49.708;10.900;2024-03-25T07:20:26;4.68;;;2.13;;
21432;SDS011;18592;49.708;10.900;2024-03-25T07:22:39;3.65;;;2.28;;
21432;SDS011;18592;49.708;10.900;2024-03-25T07:24:45;6.03;;;2.20;;
21432;SDS011;18592;49.708;10.900;2024-03-25T07:26:52;3.50;;;2.17;;
21432;SDS011;18592;49.708;10.900;2024-03-25T07:29:06;4.40;;;2.45;;
21432;SDS011;18592;49.708;10.900;2024-03-25T07:31:06;3.95;;;2.00;;
21432;SDS011;18592;49.708;10.900;2024-03-25T07:33:07;2.83;;;1.95;;
21432;SDS011;18592;49.708;10.900;2024-03-25T07:35:08;4.15;;;2.03;;
21432;SDS011;18592;49.708;10.900;2024-03-25T07:37:10;3.45;;;2.10;;
21432;SDS011;18592;49.708;10.900;2024-03-25T07:39:10;3.45;;;1.88;;
21432;SDS011;18592;49.708;10.900;2024-03-25T07:41:11;6.10;;;2.22;;
21432;SDS011;18592;49.708;10.900;2024-03-25T07:43:11;2.47;;;1.80;;
21432;SDS011;18592;49.708;10.900;2024-03-25T07:45:12;4.18;;;1.90;;
21432;SDS011;18592;49.708;10.900;2024-03-25T07:47:12;4.35;;;1.98;;
21432;SDS011;18592;49.708;10.900;2024-03-25T07:49:13;3.13;;;1.70;;
21432;SDS011;18592;49.708;10.900;2024-03-25T07:51:13;4.80;;;1.80;;
21432;SDS011;18592;49.708;10.900;2024-03-25T07:53:14;4.43;;;1.85;;
21432;SDS011;18592;49.708;10.900;2024-03-25T07:55:15;3.92;;;1.88;;
21432;SDS011;18592;49.708;10.900;2024-03-25T07:57:15;5.00;;;1.88;;
21432;SDS011;18592;49.708;10.900;2024-03-25T07:59:16;5.47;;;1.95;;
21432;SDS011;18592;49.708;10.900;2024-03-25T08:01:30;2.92;;;1.73;;
21432;SDS011;18592;49.708;10.900;2024-03-25T08:03:30;2.47;;;1.48;;
21432;SDS011;18592;49.708;10.900;2024-03-25T08:05:31;3.72;;;1.60;;
21432;SDS011;18592;49.708;10.900;2024-03-25T08:07:31;3.55;;;1.90;;
21432;SDS011;18592;49.708;10.900;2024-03-25T08:09:32;3.30;;;1.52;;
21432;SDS011;18592;49.708;10.900;2024-03-25T08:11:33;3.63;;;1.73;;
21432;SDS011;18592;49.708;10.900;2024-03-25T08:13:43;3.53;;;2.00;;
21432;SDS011;18592;49.708;10.900;2024-03-25T08:15:43;6.43;;;1.75;;
21432;SDS011;18592;49.708;10.900;2024-03-25T08:17:44;5.07;;;1.67;;
21432;SDS011;18592;49.708;10.900;2024-03-25T08:19:45;3.17;;;1.80;;
21432;SDS011;18592;49.708;10.900;2024-03-25T08:21:45;3.22;;;1.83;;
21432;SDS011;18592;49.708;10.900;2024-03-25T08:23:46;3.40;;;1.80;;
21432;SDS011;18592;49.708;10.900;2024-03-25T08:25:46;5.32;;;1.70;;
21432;SDS011;18592;49.708;10.900;2024-03-25T08:27:47;6.10;;;2.03;;
21432;SDS011;18592;49.708;10.900;2024-03-25T08:29:47;3.50;;;1.83;;
21432;SDS011;18592;49.708;10.900;2024-03-25T08:31:51;3.38;;;1.85;;
21432;SDS011;18592;49.708;10.900;2024-03-25T08:33:57;2.55;;;1.58;;
21432;SDS011;18592;49.708;10.900;2024-03-25T08:35:57;4.93;;;1.90;;
21432;SDS011;18592;49.708;10.900;2024-03-25T08:37:58;3.85;;;1.92;;
21432;SDS011;18592;49.708;10.900;2024-03-25T08:39:58;2.45;;;1.80;;
21432;SDS011;18592;49.708;10.900;2024-03-25T08:41:59;3.95;;;1.88;;
21432;SDS011;18592;49.708;10.900;2024-03-25T08:43:59;3.90;;;2.20;;
21432;SDS011;18592;49.708;10.900;2024-03-25T08:46:00;2.75;;;1.58;;
21432;SDS011;18592;49.708;10.900;2024-03-25T08:48:01;3.00;;;1.45;;
21432;SDS011;18592;49.708;10.900;2024-03-25T08:50:02;4.13;;;1.73;;
21432;SDS011;18592;49.708;10.900;2024-03-25T08:52:03;2.88;;;1.50;;
21432;SDS011;18592;49.708;10.900;2024-03-25T08:54:03;4.10;;;1.70;;
21432;SDS011;18592;49.708;10.900;2024-03-25T08:56:04;2.60;;;1.60;;
21432;SDS011;18592;49.708;10.900;2024-03-25T08:58:05;1.70;;;1.30;;
21432;SDS011;18592;49.708;10.900;2024-03-25T09:00:05;3.40;;;1.23;;
21432;SDS011;18592;49.708;10.900;2024-03-25T09:02:10;4.03;;;1.60;;
21432;SDS011;18592;49.708;10.900;2024-03-25T09:04:11;3.42;;;1.55;;
21432;SDS011;18592;49.708;10.900;2024-03-25T09:06:11;2.63;;;1.45;;
21432;SDS011;18592;49.708;10.900;2024-03-25T09:08:12;4.32;;;1.42;;
21432;SDS011;18592;49.708;10.900;2024-03-25T09:10:12;2.58;;;1.30;;
21432;SDS011;18592;49.708;10.900;2024-03-25T09:12:31;2.13;;;1.23;;
21432;SDS011;18592;49.708;10.900;2024-03-25T09:14:33;2.33;;;1.17;;
21432;SDS011;18592;49.708;10.900;2024-03-25T09:16:34;3.35;;;1.25;;
21432;SDS011;18592;49.708;10.900;2024-03-25T09:18:34;1.35;;;1.05;;
21432;SDS011;18592;49.708;10.900;2024-03-25T09:20:35;1.80;;;1.00;;
21432;SDS011;18592;49.708;10.900;2024-03-25T09:22:36;2.65;;;1.27;;
21432;SDS011;18592;49.708;10.900;2024-03-25T09:24:36;1.73;;;1.10;;
21432;SDS011;18592;49.708;10.900;2024-03-25T09:26:37;3.50;;;1.10;;
21432;SDS011;18592;49.708;10.900;2024-03-25T09:28:37;4.00;;;1.40;;
21432;SDS011;18592;49.708;10.900;2024-03-25T09:30:38;1.55;;;1.05;;
21432;SDS011;18592;49.708;10.900;2024-03-25T09:32:40;2.33;;;1.10;;
21432;SDS011;18592;49.708;10.900;2024-03-25T09:34:41;2.22;;;1.30;;
21432;SDS011;18592;49.708;10.900;2024-03-25T09:36:42;3.15;;;1.20;;
21432;SDS011;18592;49.708;10.900;2024-03-25T09:38:42;2.10;;;1.00;;
21432;SDS011;18592;49.708;10.900;2024-03-25T09:40:43;2.38;;;0.90;;
21432;SDS011;18592;49.708;10.900;2024-03-25T09:42:46;1.67;;;0.93;;
21432;SDS011;18592;49.708;10.900;2024-03-25T09:44:48;0.98;;;0.90;;
21432;SDS011;18592;49.708;10.900;2024-03-25T09:46:49;2.03;;;0.90;;
21432;SDS011;18592;49.708;10.900;2024-03-25T09:48:51;1.42;;;0.80;;
21432;SDS011;18592;49.708;10.900;2024-03-25T09:50:53;1.45;;;0.98;;
21432;SDS011;18592;49.708;10.900;2024-03-25T09:52:54;1.73;;;0.80;;
21432;SDS011;18592;49.708;10.900;2024-03-25T09:54:55;3.42;;;1.05;;
21432;SDS011;18592;49.708;10.900;2024-03-25T09:56:56;1.50;;;0.80;;
21432;SDS011;18592;49.708;10.900;2024-03-25T09:58:58;1.95;;;1.13;;
21432;SDS011;18592;49.708;10.900;2024-03-25T10:00:58;1.65;;;0.80;;
21432;SDS011;18592;49.708;10.900;2024-03-25T10:02:59;1.98;;;0.95;;
21432;SDS011;18592;49.708;10.900;2024-03-25T10:04:59;2.65;;;1.02;;
21432;SDS011;18592;49.708;10.900;2024-03-25T10:07:00;2.85;;;1.20;;
21432;SDS011;18592;49.708;10.900;2024-03-25T10:09:04;2.78;;;1.10;;
21432;SDS011;18592;49.708;10.900;2024-03-25T10:11:05;2.05;;;1.00;;
21432;SDS011;18592;49.708;10.900;2024-03-25T10:13:07;1.83;;;0.90;;
21432;SDS011;18592;49.708;10.900;2024-03-25T10:15:07;1.98;;;0.90;;
21432;SDS011;18592;49.708;10.900;2024-03-25T10:17:08;3.13;;;1.15;;
21432;SDS011;18592;49.708;10.900;2024-03-25T10:19:10;2.65;;;1.00;;
21432;SDS011;18592;49.708;10.900;2024-03-25T10:21:10;2.03;;;0.75;;
21432;SDS011;18592;49.708;10.900;2024-03-25T10:23:11;1.80;;;0.90;;
21432;SDS011;18592;49.708;10.900;2024-03-25T10:25:21;2.60;;;1.33;;
21432;SDS011;18592;49.708;10.900;2024-03-25T10:27:30;2.45;;;0.90;;
21432;SDS011;18592;49.708;10.900;2024-03-25T10:29:30;2.05;;;1.00;;
21432;SDS011;18592;49.708;10.900;2024-03-25T10:31:31;2.33;;;0.98;;
21432;SDS011;18592;49.708;10.900;2024-03-25T10:33:31;3.63;;;1.40;;
21432;SDS011;18592;49.708;10.900;2024-03-25T10:35:33;1.65;;;1.10;;
21432;SDS011;18592;49.708;10.900;2024-03-25T10:37:34;2.00;;;1.00;;
21432;SDS011;18592;49.708;10.900;2024-03-25T10:39:39;2.25;;;1.10;;
21432;SDS011;18592;49.708;10.900;2024-03-25T10:41:42;1.55;;;0.90;;
21432;SDS011;18592;49.708;10.900;2024-03-25T10:43:46;1.27;;;1.00;;
21432;SDS011;18592;49.708;10.900;2024-03-25T10:45:47;2.92;;;1.10;;
21432;SDS011;18592;49.708;10.900;2024-03-25T10:47:50;1.75;;;1.00;;
21432;SDS011;18592;49.708;10.900;2024-03-25T10:49:56;2.38;;;1.10;;
21432;SDS011;18592;49.708;10.900;2024-03-25T10:51:58;1.77;;;1.00;;
21432;SDS011;18592;49.708;10.900;2024-03-25T10:54:01;1.30;;;0.88;;
21432;SDS011;18592;49.708;10.900;2024-03-25T10:56:03;2.58;;;1.10;;
21432;SDS011;18592;49.708;10.900;2024-03-25T10:58:05;1.70;;;0.80;;
21432;SDS011;18592;49.708;10.900;2024-03-25T11:00:10;1.10;;;0.90;;
21432;SDS011;18592;49.708;10.900;2024-03-25T11:02:15;1.75;;;1.05;;
21432;SDS011;18592;49.708;10.900;2024-03-25T11:04:18;2.97;;;1.20;;
21432;SDS011;18592;49.708;10.900;2024-03-25T11:06:20;1.67;;;1.00;;
21432;SDS011;18592;49.708;10.900;2024-03-25T11:08:21;2.10;;;1.10;;
21432;SDS011;18592;49.708;10.900;2024-03-25T11:10:31;2.47;;;1.23;;
21432;SDS011;18592;49.708;10.900;2024-03-25T11:12:32;3.05;;;1.23;;
21432;SDS011;18592;49.708;10.900;2024-03-25T11:14:34;1.98;;;1.10;;
21432;SDS011;18592;49.708;10.900;2024-03-25T11:16:35;3.40;;;1.30;;
21432;SDS011;18592;49.708;10.900;2024-03-25T11:18:36;2.78;;;1.30;;
21432;SDS011;18592;49.708;10.900;2024-03-25T11:20:39;4.15;;;1.10;;
21432;SDS011;18592;49.708;10.900;2024-03-25T11:22:49;2.00;;;0.95;;
21432;SDS011;18592;49.708;10.900;2024-03-25T11:25:06;1.35;;;0.90;;
21432;SDS011;18592;49.708;10.900;2024-03-25T11:27:09;3.17;;;0.90;;
21432;SDS011;18592;49.708;10.900;2024-03-25T11:29:10;1.77;;;0.88;;
21432;SDS011;18592;49.708;10.900;2024-03-25T11:31:10;2.08;;;1.00;;
21432;SDS011;18592;49.708;10.900;2024-03-25T11:33:11;2.90;;;0.95;;
21432;SDS011;18592;49.708;10.900;2024-03-25T11:35:13;1.00;;;0.80;;
21432;SDS011;18592;49.708;10.900;2024-03-25T11:37:14;0.88;;;0.70;;
21432;SDS011;18592;49.708;10.900;2024-03-25T11:39:15;1.70;;;0.98;;
21432;SDS011;18592;49.708;10.900;2024-03-25T11:41:16;1.75;;;0.95;;
21432;SDS011;18592;49.708;10.900;2024-03-25T11:43:17;1.38;;;0.85;;
21432;SDS011;18592;49.708;10.900;2024-03-25T11:45:19;1.48;;;0.90;;
21432;SDS011;18592;49.708;10.900;2024-03-25T11:47:21;2.38;;;0.90;;
21432;SDS011;18592;49.708;10.900;2024-03-25T11:49:21;2.42;;;1.13;;
21432;SDS011;18592;49.708;10.900;2024-03-25T11:51:22;3.03;;;1.20;;